Observations for BARCELONA AIRPORT, Spain (LEBL)

LEBL 242030Z VRB02KT CAVOK 18/14 Q1018 NOSIG
LEBL 242000Z 00000KT CAVOK 19/14 Q1018 NOSIG
LEBL 241930Z 13001KT CAVOK 19/14 Q1018 NOSIG
LEBL 241900Z 12002KT CAVOK 19/14 Q1017 NOSIG
LEBL 241830Z VRB01KT CAVOK 20/13 Q1017 NOSIG
LEBL 241800Z VRB02KT CAVOK 20/14 Q1017 NOSIG
LEBL 241730Z 14003KT 090V210 CAVOK 20/14 Q1017 NOSIG
LEBL 241700Z 16004KT 130V210 CAVOK 21/14 Q1017 NOSIG
LEBL 241630Z 12004KT 070V160 CAVOK 21/14 Q1017 NOSIG
LEBL 241600Z 12005KT 080V170 CAVOK 21/13 Q1018 NOSIG
LEBL 241530Z 12006KT 090V160 CAVOK 21/12 Q1018 NOSIG
LEBL 241500Z 15006KT 110V180 CAVOK 22/13 Q1018 NOSIG
LEBL 241430Z 15008KT CAVOK 22/12 Q1018 NOSIG
LEBL 241400Z 15007KT 120V190 CAVOK 23/12 Q1018 NOSIG
LEBL 241330Z 13008KT CAVOK 23/11 Q1019 NOSIG
LEBL 241300Z 13007KT CAVOK 23/11 Q1019 NOSIG
LEBL 241230Z 15006KT 100V190 CAVOK 23/11 Q1019 NOSIG
LEBL 241200Z 13004KT 080V190 CAVOK 23/11 Q1019 NOSIG
LEBL 241130Z 14004KT CAVOK 23/11 Q1020 NOSIG
LEBL 241100Z 19004KT CAVOK 23/11 Q1020 NOSIG
LEBL 241030Z 20004KT CAVOK 23/11 Q1020 NOSIG
LEBL 241000Z 18005KT 130V230 CAVOK 23/11 Q1020 NOSIG
LEBL 240930Z 25001KT CAVOK 23/11 Q1020 NOSIG
LEBL 240900Z 31005KT 240V350 CAVOK 22/12 Q1020 NOSIG
LEBL 240830Z 33007KT 300V010 CAVOK 20/12 Q1020 NOSIG
LEBL 240800Z 33009G19KT 290V020 CAVOK 19/12 Q1020 NOSIG 
LEBL 240730Z 33008KT 280V010 CAVOK 18/11 Q1020 NOSIG
LEBL 240700Z 33007KT CAVOK 17/11 Q1019 NOSIG
LEBL 240630Z 33009KT 290V030 CAVOK 16/11 Q1019 NOSIG
LEBL 240600Z 33006KT CAVOK 15/10 Q1019 NOSIG
LEBL 240530Z 33006KT CAVOK 15/10 Q1019 NOSIG
LEBL 240500Z 33006KT CAVOK 15/10 Q1019 NOSIG
LEBL 240430Z 33006KT CAVOK 15/10 Q1019 NOSIG
LEBL 240400Z 34007KT CAVOK 15/11 Q1019 NOSIG
LEBL 240330Z 34006KT CAVOK 15/10 Q1018 NOSIG
LEBL 240300Z 33005KT CAVOK 15/10 Q1018 NOSIG
LEBL 240230Z 33006KT CAVOK 15/11 Q1019 NOSIG
LEBL 240200Z 31006KT CAVOK 16/10 Q1019 NOSIG
LEBL 240130Z 31005KT CAVOK 15/10 Q1019 NOSIG
LEBL 240100Z 29003KT CAVOK 15/10 Q1019 NOSIG
LEBL 240030Z 31006KT CAVOK 15/10 Q1019 NOSIG
LEBL 240000Z 33007KT CAVOK 16/11 Q1019 NOSIG
LEBL 232330Z 32004KT CAVOK 17/11 Q1019 NOSIG
LEBL 232300Z 33004KT 280V030 CAVOK 16/12 Q1019 NOSIG
LEBL 232230Z VRB02KT CAVOK 17/13 Q1019 NOSIG